Time;durP1;ratioP1;P1;durP2;ratioP2;P2;SDS_P1;SDS_P2;PMS_P1;PMS_P2;Temp;Humidity;BMP_temperature;BMP_pressure;BME280_temperature;BME280_humidity;BME280_pressure;Samples;Min_cycle;Max_cycle;Signal;HPM_P1;HPM_P2
2023/12/29 00:00:27;;;;;;;4.77;1.00;;;;;;;14.35;69.32;100724.31;5054818;28;20056;-74
2023/12/29 00:02:52;;;;;;;3.47;0.77;;;;;;;14.72;69.70;100715.41;5052379;28;20021;-74
2023/12/29 00:05:18;;;;;;;4.50;1.23;;;;;;;15.62;65.98;100707.41;5062654;28;20116;-75
2023/12/29 00:07:43;;;;;;;13.20;1.33;;;;;;;15.16;65.55;100714.13;5061194;28;20514;-75
2023/12/29 00:10:08;;;;;;;10.13;1.50;;;;;;;15.92;62.66;100695.00;5060686;28;20060;-76
2023/12/29 00:12:34;;;;;;;11.90;1.90;;;;;;;15.06;65.40;100682.81;5053166;28;20095;-75
2023/12/29 00:14:59;;;;;;;7.43;1.40;;;;;;;15.70;63.01;100704.50;5052113;28;20056;-74
2023/12/29 00:17:25;;;;;;;9.33;1.63;;;;;;;15.97;61.49;100689.56;5050227;28;20032;-76
2023/12/29 00:19:50;;;;;;;13.13;2.00;;;;;;;16.38;58.89;100674.03;5052476;28;20122;-75
2023/12/29 00:22:16;;;;;;;9.13;2.07;;;;;;;15.75;61.48;100687.63;5055386;28;20032;-76
2023/12/29 00:24:44;;;;;;;3.90;1.13;;;;;;;15.35;61.93;100683.69;5050197;28;20029;-75
2023/12/29 00:27:10;;;;;;;5.37;0.93;;;;;;;15.17;61.97;100679.00;5055822;28;20486;-75
2023/12/29 00:29:35;;;;;;;4.93;1.33;;;;;;;15.86;59.62;100675.91;5045538;28;20374;-75
2023/12/29 00:32:02;;;;;;;16.90;1.77;;;;;;;15.86;59.70;100662.72;5070161;28;20025;-75
2023/12/29 00:34:27;;;;;;;15.20;1.47;;;;;;;15.70;59.86;100686.94;5049157;28;20028;-74
2023/12/29 00:36:53;;;;;;;8.77;1.40;;;;;;;15.99;59.23;100647.31;5052654;28;20393;-75
2023/12/29 00:39:18;;;;;;;10.03;1.37;;;;;;;16.17;58.53;100643.16;5045740;28;20438;-76
2023/12/29 00:41:44;;;;;;;5.40;1.27;;;;;;;16.46;57.29;100679.03;5050332;28;20033;-76
2023/12/29 00:44:09;;;;;;;4.70;1.23;;;;;;;15.71;58.19;100691.28;5050646;28;20029;-75
2023/12/29 00:46:34;;;;;;;5.20;1.30;;;;;;;16.05;58.46;100658.50;5059465;28;20028;-76
2023/12/29 00:49:00;;;;;;;9.00;0.87;;;;;;;14.99;61.48;100668.13;5070473;28;20035;-74
2023/12/29 00:51:25;;;;;;;9.07;1.93;;;;;;;15.75;60.21;100684.13;5062698;28;20126;-75
2023/12/29 00:53:50;;;;;;;5.30;1.27;;;;;;;15.83;59.89;100678.66;5045581;28;20045;-76
2023/12/29 00:56:16;;;;;;;6.13;1.40;;;;;;;15.89;59.32;100686.31;5039281;28;20403;-75
2023/12/29 00:58:41;;;;;;;10.33;1.43;;;;;;;15.70;60.54;100671.13;5069571;28;20119;-75
2023/12/29 01:01:11;;;;;;;7.27;1.27;;;;;;;14.92;62.14;100672.72;5067882;28;20028;-75
2023/12/29 01:03:37;;;;;;;2.37;1.00;;;;;;;15.39;61.90;100674.75;5051093;28;20492;-75
2023/12/29 01:06:03;;;;;;;9.43;1.20;;;;;;;15.93;59.63;100674.75;5052785;28;20079;-75
2023/12/29 01:08:33;;;;;;;3.20;0.80;;;;;;;16.52;57.84;100656.84;5054904;28;20089;-75
2023/12/29 01:10:58;;;;;;;10.60;1.20;;;;;;;15.67;59.90;100660.66;5047386;28;20029;-74
2023/12/29 01:13:24;;;;;;;8.83;1.00;;;;;;;16.59;57.36;100660.97;5050027;28;20064;-76
2023/12/29 01:15:49;;;;;;;4.23;1.20;;;;;;;16.19;59.13;100643.97;5048785;28;20064;-75
2023/12/29 01:18:14;;;;;;;7.70;1.50;;;;;;;16.22;58.73;100638.59;5052981;28;20033;-76
2023/12/29 01:20:40;;;;;;;7.43;1.07;;;;;;;16.50;58.15;100670.09;5031398;28;20466;-76
2023/12/29 01:23:06;;;;;;;7.47;1.40;;;;;;;15.62;60.14;100657.34;5067175;28;20059;-75
2023/12/29 01:25:31;;;;;;;12.30;1.27;;;;;;;15.39;61.04;100661.59;5050190;28;20029;-75
2023/12/29 01:27:57;;;;;;;4.77;1.40;;;;;;;15.36;61.13;100659.06;5073057;28;20059;-75
2023/12/29 01:30:23;;;;;;;12.23;1.37;;;;;;;16.07;59.03;100672.50;5048677;28;20028;-77
2023/12/29 01:32:48;;;;;;;6.53;1.23;;;;;;;15.43;60.08;100676.38;5049348;28;20413;-75
2023/12/29 01:35:14;;;;;;;8.33;1.20;;;;;;;16.06;59.55;100678.69;5049878;28;20117;-76
2023/12/29 01:37:39;;;;;;;11.87;2.20;;;;;;;16.70;56.71;100666.69;5067664;28;20080;-75
2023/12/29 01:40:05;;;;;;;6.40;1.10;;;;;;;15.46;61.76;100677.22;5046101;28;20535;-76
2023/12/29 01:42:30;;;;;;;14.20;2.27;;;;;;;15.94;59.46;100672.06;5052230;28;20035;-76
2023/12/29 01:44:56;;;;;;;5.97;1.57;;;;;;;15.39;62.40;100663.38;5069366;28;20078;-75
2023/12/29 01:47:22;;;;;;;7.23;1.10;;;;;;;15.75;60.54;100661.25;5069620;28;20139;-75
2023/12/29 01:49:49;;;;;;;7.37;2.30;;;;;;;15.88;61.58;100666.16;5053996;28;20102;-76
2023/12/29 01:52:16;;;;;;;7.90;1.23;;;;;;;16.07;61.72;100659.34;5055123;28;20017;-76
2023/12/29 01:54:43;;;;;;;5.60;1.53;;;;;;;15.82;61.08;100682.19;5056385;28;20038;-76
2023/12/29 01:57:11;;;;;;;6.37;1.13;;;;;;;15.80;63.25;100689.28;5053459;28;20028;-76
2023/12/29 01:59:38;;;;;;;6.97;1.70;;;;;;;15.57;63.07;100682.97;5069481;28;20016;-75
2023/12/29 02:02:04;;;;;;;15.93;2.03;;;;;;;15.80;61.27;100678.72;5065543;28;20382;-75
2023/12/29 02:04:30;;;;;;;4.80;1.67;;;;;;;15.52;63.36;100696.28;5050080;28;20053;-76
2023/12/29 02:06:56;;;;;;;6.53;1.57;;;;;;;15.44;64.34;100701.81;5052803;28;20556;-75
2023/12/29 02:09:22;;;;;;;4.03;1.23;;;;;;;15.84;63.08;100690.88;5061560;28;20033;-76
2023/12/29 02:11:48;;;;;;;3.33;1.20;;;;;;;15.84;60.72;100698.78;5051315;28;20056;-75
2023/12/29 02:14:15;;;;;;;6.90;1.30;;;;;;;15.74;62.26;100696.47;5056266;28;20162;-76
2023/12/29 02:17:22;;;;;;;8.37;1.87;;;;;;;15.35;67.26;100704.75;5052972;28;20056;-76
2023/12/29 02:19:49;;;;;;;7.47;1.57;;;;;;;15.25;68.50;100711.22;5042083;28;20025;-76
2023/12/29 02:22:15;;;;;;;4.37;1.27;;;;;;;16.24;64.58;100713.25;5054123;28;20047;-76
2023/12/29 02:24:50;;;;;;;5.80;1.30;;;;;;;16.49;64.19;100705.28;5073117;28;20029;-76
2023/12/29 02:27:20;;;;;;;12.20;1.60;;;;;;;16.16;63.28;100710.03;5057652;28;20033;-77
2023/12/29 02:29:55;;;;;;;4.80;1.53;;;;;;;16.20;64.74;100714.28;5065591;28;20064;-77
2023/12/29 02:32:27;;;;;;;5.70;1.53;;;;;;;16.57;63.62;100697.09;5051623;28;20366;-77
2023/12/29 02:34:53;;;;;;;7.30;1.60;;;;;;;15.57;66.95;100706.69;5033202;28;20477;-78
2023/12/29 02:37:19;;;;;;;3.97;1.70;;;;;;;15.32;69.81;100698.69;5035019;28;20036;-76
2023/12/29 02:39:46;;;;;;;9.03;1.83;;;;;;;15.04;69.68;100689.94;5052570;28;20033;-77
2023/12/29 02:42:11;;;;;;;8.17;2.00;;;;;;;16.02;65.77;100699.94;5050995;28;20036;-76
2023/12/29 02:44:36;;;;;;;14.30;2.70;;;;;;;15.66;67.95;100695.84;5086697;28;20029;-76
2023/12/29 02:47:03;;;;;;;12.30;2.07;;;;;;;15.59;68.79;100699.59;5052010;28;20148;-76
2023/12/29 02:49:32;;;;;;;7.50;1.97;;;;;;;15.49;67.23;100691.13;5068769;28;20066;-76
2023/12/29 02:51:57;;;;;;;10.53;1.70;;;;;;;15.89;66.20;100699.50;5074605;28;20020;-76
2023/12/29 02:54:22;;;;;;;6.80;1.93;;;;;;;16.18;62.75;100705.53;5059550;28;20032;-76
2023/12/29 02:56:48;;;;;;;14.37;2.47;;;;;;;15.89;64.73;100716.16;5044760;28;20079;-76
2023/12/29 02:59:13;;;;;;;11.83;1.97;;;;;;;16.15;63.56;100708.28;5049810;28;20028;-76
2023/12/29 03:01:38;;;;;;;9.00;2.43;;;;;;;16.07;64.10;100709.44;5048215;28;20028;-76
2023/12/29 03:04:04;;;;;;;9.77;1.60;;;;;;;16.19;62.02;100700.22;5051306;28;20058;-77
2023/12/29 03:06:29;;;;;;;9.03;1.43;;;;;;;16.50;60.88;100691.19;5054033;28;20029;-76
2023/12/29 03:08:54;;;;;;;6.27;1.20;;;;;;;16.22;62.60;100686.06;5064145;28;20455;-77
2023/12/29 03:11:20;;;;;;;11.03;1.60;;;;;;;15.78;63.30;100687.53;5055204;28;20408;-75
2023/12/29 03:13:47;;;;;;;13.50;2.07;;;;;;;15.84;64.52;100689.13;5055528;28;20474;-76
2023/12/29 03:16:13;;;;;;;9.63;1.57;;;;;;;16.18;62.72;100668.63;5051506;28;20396;-75
2023/12/29 03:18:40;;;;;;;15.20;1.33;;;;;;;16.61;60.36;100677.59;5057046;28;20035;-76
2023/12/29 03:21:05;;;;;;;11.87;1.63;;;;;;;16.68;60.63;100663.25;5072443;28;20024;-76
2023/12/29 03:23:31;;;;;;;17.83;1.97;;;;;;;17.24;58.08;100669.03;5069575;28;20036;-76
2023/12/29 03:25:56;;;;;;;11.93;2.27;;;;;;;17.31;58.60;100652.03;5048772;28;20033;-76
2023/12/29 03:28:22;;;;;;;10.60;0.93;;;;;;;16.50;59.94;100671.84;5046108;28;20021;-75
2023/12/29 03:30:47;;;;;;;12.23;1.60;;;;;;;15.77;63.93;100663.84;5054950;28;20163;-76
2023/12/29 03:33:14;;;;;;;11.10;1.77;;;;;;;15.89;63.74;100665.25;5031958;28;20025;-75
2023/12/29 03:35:39;;;;;;;12.27;2.00;;;;;;;16.04;63.12;100683.16;5070791;28;20033;-76
2023/12/29 03:38:04;;;;;;;16.57;2.10;;;;;;;16.13;62.98;100675.81;5053331;28;20031;-75
2023/12/29 03:40:29;;;;;;;9.70;1.70;;;;;;;15.98;64.05;100671.94;5050803;28;20026;-75
2023/12/29 03:42:55;;;;;;;12.50;1.60;;;;;;;15.87;64.04;100682.91;5047956;28;20535;-76
2023/12/29 03:45:20;;;;;;;5.50;1.17;;;;;;;16.50;62.17;100663.94;5067487;28;20120;-76
2023/12/29 03:47:45;;;;;;;10.77;2.03;;;;;;;16.05;63.58;100669.06;5050746;28;20067;-76
2023/12/29 03:50:11;;;;;;;12.27;1.80;;;;;;;15.65;64.73;100680.94;5066271;28;20078;-75
2023/12/29 03:52:36;;;;;;;11.03;1.60;;;;;;;15.80;63.28;100657.66;5071355;28;20523;-75
2023/12/29 03:55:02;;;;;;;23.03;2.20;;;;;;;16.87;59.98;100646.69;5058845;28;20029;-76
2023/12/29 03:57:27;;;;;;;16.53;2.70;;;;;;;17.08;58.69;100645.88;5050559;28;20329;-76
2023/12/29 03:59:53;;;;;;;11.70;2.17;;;;;;;16.28;60.56;100652.41;5051815;28;20138;-75
2023/12/29 04:02:18;;;;;;;15.47;1.93;;;;;;;16.30;61.83;100655.00;5052498;28;20404;-76
2023/12/29 04:04:43;;;;;;;19.90;2.57;;;;;;;16.55;59.75;100667.28;5059722;28;20032;-76
2023/12/29 04:07:09;;;;;;;15.27;3.40;;;;;;;16.18;61.76;100673.91;5069607;28;20365;-76
2023/12/29 04:09:34;;;;;;;17.23;1.53;;;;;;;15.80;62.59;100657.66;5056885;28;20082;-75
2023/12/29 04:11:59;;;;;;;19.93;3.03;;;;;;;16.32;62.12;100665.47;5050485;28;20028;-76
2023/12/29 04:14:24;;;;;;;14.90;2.03;;;;;;;16.37;61.67;100659.13;5047670;28;20029;-76
2023/12/29 04:16:50;;;;;;;17.10;2.57;;;;;;;16.55;60.48;100657.56;5043131;28;20032;-76
2023/12/29 04:19:15;;;;;;;21.53;2.70;;;;;;;16.64;59.08;100656.38;5055210;28;20062;-75
2023/12/29 04:21:41;;;;;;;14.77;1.70;;;;;;;16.29;59.52;100674.34;5071692;28;20391;-76
2023/12/29 04:24:06;;;;;;;18.30;2.20;;;;;;;16.62;58.52;100671.38;5069456;28;20135;-76
2023/12/29 04:26:38;;;;;;;26.40;2.90;;;;;;;16.63;58.56;100671.31;5050937;28;20096;-76
2023/12/29 04:29:03;;;;;;;22.70;2.80;;;;;;;16.53;58.46;100658.56;5048738;28;20036;-76
2023/12/29 04:31:31;;;;;;;29.47;3.20;;;;;;;16.30;58.83;100657.63;5071825;28;20016;-76
2023/12/29 04:33:57;;;;;;;23.40;2.40;;;;;;;16.54;57.55;100673.47;5071516;28;20411;-76
2023/12/29 04:36:22;;;;;;;24.20;3.13;;;;;;;16.29;57.57;100666.44;5050769;28;20029;-75
2023/12/29 04:38:47;;;;;;;23.27;2.47;;;;;;;16.88;56.49;100659.81;5049287;28;20189;-76
2023/12/29 04:41:13;;;;;;;22.00;2.67;;;;;;;16.36;57.02;100661.81;5068841;28;20484;-76
2023/12/29 04:43:38;;;;;;;19.77;2.80;;;;;;;16.36;56.67;100667.97;5070290;28;20021;-76
2023/12/29 04:46:04;;;;;;;31.53;5.17;;;;;;;16.04;56.60;100667.31;5045730;28;20415;-76
2023/12/29 04:48:29;;;;;;;19.57;3.57;;;;;;;15.55;58.73;100668.97;5030141;28;20152;-75
2023/12/29 04:50:54;;;;;;;19.23;2.97;;;;;;;16.34;56.02;100653.13;5052553;28;20357;-76
2023/12/29 04:53:20;;;;;;;26.93;2.23;;;;;;;16.54;55.79;100632.13;5045998;28;20039;-76
2023/12/29 04:55:45;;;;;;;15.03;2.97;;;;;;;16.29;56.64;100642.72;5031490;28;20021;-76
2023/12/29 04:58:11;;;;;;;20.43;2.60;;;;;;;16.58;55.80;100667.16;5030457;28;20056;-76
2023/12/29 05:00:36;;;;;;;12.97;2.50;;;;;;;16.69;55.40;100635.97;5036898;28;20509;-76
2023/12/29 05:03:01;;;;;;;23.17;3.10;;;;;;;16.57;55.68;100647.81;5051053;28;20036;-76
2023/12/29 05:05:27;;;;;;;17.07;1.90;;;;;;;16.30;56.07;100652.34;5071033;28;20025;-75
2023/12/29 05:07:52;;;;;;;29.03;3.73;;;;;;;16.28;56.59;100670.03;5069582;28;20029;-76
2023/12/29 05:10:17;;;;;;;23.53;2.03;;;;;;;16.93;55.07;100662.34;5067542;28;20043;-76
2023/12/29 05:12:43;;;;;;;16.90;2.13;;;;;;;16.68;55.49;100662.38;5051031;28;20068;-76
2023/12/29 05:15:08;;;;;;;19.07;3.10;;;;;;;17.05;54.60;100661.84;5050086;28;20037;-76
2023/12/29 05:17:34;;;;;;;20.73;2.27;;;;;;;16.60;55.29;100671.44;5057332;28;20032;-75
2023/12/29 05:19:59;;;;;;;25.70;3.17;;;;;;;17.06;54.42;100663.59;5050683;28;20079;-76
2023/12/29 05:22:24;;;;;;;14.97;2.60;;;;;;;17.06;52.77;100658.31;5064916;28;20396;-75
2023/12/29 05:24:50;;;;;;;10.27;1.73;;;;;;;17.06;53.25;100660.06;5049185;28;20111;-76
2023/12/29 05:27:15;;;;;;;14.40;2.40;;;;;;;17.52;52.62;100657.34;5051337;28;20370;-76
2023/12/29 05:29:41;;;;;;;17.77;2.13;;;;;;;17.00;53.75;100653.25;5049878;28;20103;-76
2023/12/29 05:32:07;;;;;;;14.87;3.97;;;;;;;17.28;53.01;100652.13;5052737;28;20044;-76
2023/12/29 05:34:32;;;;;;;9.07;1.10;;;;;;;16.99;53.22;100650.69;5049939;28;20040;-76
2023/12/29 05:36:57;;;;;;;12.10;1.37;;;;;;;16.43;55.38;100661.53;5064171;28;20385;-76
2023/12/29 05:39:23;;;;;;;9.70;1.97;;;;;;;15.95;57.00;100672.94;5069828;28;20024;-75
2023/12/29 05:41:48;;;;;;;16.43;1.27;;;;;;;17.00;54.48;100650.59;5055952;28;20033;-76
2023/12/29 05:44:14;;;;;;;6.43;1.27;;;;;;;17.07;53.99;100660.00;5048929;28;20028;-76
2023/12/29 05:46:39;;;;;;;13.83;1.47;;;;;;;16.53;54.99;100642.75;5059319;28;20415;-75
2023/12/29 05:49:05;;;;;;;12.43;1.10;;;;;;;16.78;55.43;100642.66;5045353;28;20055;-75
2023/12/29 05:51:30;;;;;;;10.83;1.10;;;;;;;16.85;55.29;100648.56;5051595;28;20027;-75
2023/12/29 05:53:55;;;;;;;14.83;1.43;;;;;;;16.65;54.94;100637.00;5058850;28;20047;-75
2023/12/29 05:56:21;;;;;;;14.47;1.40;;;;;;;16.01;56.65;100634.97;5053818;28;20028;-75
2023/12/29 05:58:46;;;;;;;5.90;1.13;;;;;;;16.23;57.37;100635.03;5070634;28;20047;-75
2023/12/29 06:01:12;;;;;;;10.03;1.30;;;;;;;15.37;60.08;100638.84;5050025;28;20037;-75
2023/12/29 06:03:37;;;;;;;8.53;1.20;;;;;;;16.38;57.03;100638.91;5049260;28;20507;-75
2023/12/29 06:06:03;;;;;;;11.63;1.53;;;;;;;16.53;55.41;100637.47;5051634;28;20443;-75
2023/12/29 06:08:34;;;;;;;13.70;1.67;;;;;;;16.24;57.94;100637.63;5058886;28;20029;-75
2023/12/29 06:11:00;;;;;;;10.20;1.27;;;;;;;16.62;55.58;100630.06;5049620;28;20490;-75
2023/12/29 06:13:25;;;;;;;13.77;1.37;;;;;;;16.84;56.08;100630.97;5070470;28;20024;-75
2023/12/29 06:15:51;;;;;;;6.23;1.33;;;;;;;16.20;58.41;100616.69;5055231;28;20028;-75
2023/12/29 06:18:16;;;;;;;9.27;1.33;;;;;;;16.11;58.60;100626.66;5056985;28;20036;-75
2023/12/29 06:20:41;;;;;;;5.43;0.70;;;;;;;16.08;58.19;100626.75;5049680;28;20040;-75
2023/12/29 06:23:07;;;;;;;10.27;1.53;;;;;;;16.57;57.19;100618.81;5065710;28;20392;-75
2023/12/29 06:25:34;;;;;;;3.13;1.00;;;;;;;16.02;57.89;100629.63;5057155;28;20116;-75
2023/12/29 06:27:59;;;;;;;8.73;1.93;;;;;;;15.96;59.11;100627.19;5060574;28;20035;-75
2023/12/29 06:30:25;;;;;;;11.63;1.67;;;;;;;15.58;59.90;100626.75;5069131;28;20025;-75
2023/12/29 06:32:51;;;;;;;11.93;1.60;;;;;;;15.97;59.34;100623.66;5057858;28;20540;-75
2023/12/29 06:35:17;;;;;;;7.50;1.40;;;;;;;16.55;58.32;100622.41;5045552;28;20029;-75
2023/12/29 06:37:42;;;;;;;5.90;1.00;;;;;;;16.52;57.01;100619.91;5050461;28;20054;-76
2023/12/29 06:40:08;;;;;;;10.77;1.40;;;;;;;16.06;58.67;100628.59;5068683;28;20036;-75
2023/12/29 06:42:34;;;;;;;11.33;1.33;;;;;;;16.16;58.54;100633.56;5064321;28;20123;-75
2023/12/29 06:44:59;;;;;;;6.17;0.83;;;;;;;16.50;58.23;100621.72;5065391;28;20025;-75
2023/12/29 06:47:24;;;;;;;8.47;1.30;;;;;;;16.49;57.42;100630.59;5050406;28;20048;-75
2023/12/29 06:49:50;;;;;;;4.00;0.83;;;;;;;15.73;61.20;100638.50;5049451;28;20023;-75
2023/12/29 06:52:16;;;;;;;6.67;1.00;;;;;;;16.58;58.62;100624.94;5049076;28;20021;-75
2023/12/29 06:54:42;;;;;;;9.80;1.50;;;;;;;16.16;59.41;100623.00;5047579;28;20056;-75
2023/12/29 06:57:07;;;;;;;7.13;0.93;;;;;;;16.41;58.50;100629.06;5049579;28;20025;-75
2023/12/29 06:59:32;;;;;;;8.20;1.10;;;;;;;16.45;58.51;100625.41;5071586;28;20079;-74
2023/12/29 07:01:58;;;;;;;7.93;1.43;;;;;;;16.78;57.62;100624.16;5062342;28;20036;-76
2023/12/29 07:04:23;;;;;;;5.33;0.80;;;;;;;15.86;60.63;100631.09;5051020;28;20120;-75
2023/12/29 07:06:49;;;;;;;7.00;0.80;;;;;;;16.24;60.47;100626.22;5051244;28;20028;-75
2023/12/29 07:09:14;;;;;;;4.17;1.10;;;;;;;15.08;64.01;100644.16;5061029;28;20033;-74
2023/12/29 07:11:40;;;;;;;3.90;0.80;;;;;;;16.19;60.99;100634.28;5052046;28;20059;-75
2023/12/29 07:14:05;;;;;;;10.20;1.70;;;;;;;15.87;61.79;100653.91;5052334;28;20029;-75
2023/12/29 07:16:31;;;;;;;6.30;1.13;;;;;;;16.47;61.03;100645.59;5038542;28;20083;-75
2023/12/29 07:18:56;;;;;;;14.13;1.50;;;;;;;16.14;61.01;100630.94;5052874;28;20028;-75
2023/12/29 07:21:22;;;;;;;3.30;1.00;;;;;;;16.99;58.09;100635.69;5047449;28;20052;-75
2023/12/29 07:23:47;;;;;;;11.23;1.70;;;;;;;17.34;56.08;100620.19;5052031;28;20028;-76
2023/12/29 07:26:12;;;;;;;10.33;1.40;;;;;;;16.94;57.68;100627.09;5051791;28;20477;-75
2023/12/29 07:28:38;;;;;;;10.23;2.40;;;;;;;16.28;60.09;100623.41;5055315;28;20028;-76
2023/12/29 07:31:03;;;;;;;7.27;1.93;;;;;;;17.01;58.12;100612.72;5063828;28;20020;-75
2023/12/29 07:33:30;;;;;;;3.90;2.17;;;;;;;16.65;59.41;100615.00;5049122;28;20059;-75
2023/12/29 07:35:55;;;;;;;3.60;1.60;;;;;;;16.28;60.24;100617.28;5072788;28;20024;-75
2023/12/29 07:38:20;;;;;;;4.37;1.50;;;;;;;16.56;59.55;100622.34;5058406;28;20036;-75
2023/12/29 07:40:47;;;;;;;4.13;1.23;;;;;;;16.16;60.59;100618.59;5051372;28;20477;-75
2023/12/29 07:43:13;;;;;;;7.27;1.50;;;;;;;16.02;62.14;100632.28;5051277;28;20108;-76
2023/12/29 07:45:39;;;;;;;11.93;1.90;;;;;;;16.25;61.05;100634.06;5067268;28;20119;-74
2023/12/29 07:48:05;;;;;;;3.90;1.43;;;;;;;16.45;60.89;100625.41;5055327;28;20053;-75
2023/12/29 07:50:30;;;;;;;6.37;1.93;;;;;;;16.50;59.34;100627.00;5066450;28;20386;-75
2023/12/29 07:52:56;;;;;;;4.63;1.60;;;;;;;16.85;58.91;100623.00;5058010;28;20116;-75
2023/12/29 07:55:21;;;;;;;4.63;1.67;;;;;;;16.08;61.51;100631.19;5079215;28;20021;-75
2023/12/29 07:57:48;;;;;;;2.97;1.27;;;;;;;16.03;62.84;100622.56;5051493;28;20025;-75
2023/12/29 08:00:17;;;;;;;13.03;1.67;;;;;;;17.21;57.63;100629.53;5054112;28;20035;-76
2023/12/29 08:02:42;;;;;;;5.90;1.40;;;;;;;15.73;62.16;100636.75;5070878;28;20021;-76
2023/12/29 08:05:10;;;;;;;6.63;1.93;;;;;;;16.07;61.18;100619.78;5063632;28;20045;-76
2023/12/29 08:07:37;;;;;;;9.20;1.20;;;;;;;16.79;59.73;100621.47;5051498;28;20030;-76
2023/12/29 08:10:04;;;;;;;3.03;0.97;;;;;;;15.35;64.75;100646.81;5057332;28;20031;-76
2023/12/29 08:12:30;;;;;;;6.87;1.60;;;;;;;16.43;60.22;100648.34;5040131;28;20408;-76
2023/12/29 08:14:56;;;;;;;6.77;1.20;;;;;;;16.69;59.78;100638.59;5054890;28;20127;-76
2023/12/29 08:17:21;;;;;;;10.43;2.30;;;;;;;16.37;59.64;100638.00;5071148;28;20031;-76
2023/12/29 08:19:47;;;;;;;3.43;1.20;;;;;;;15.60;63.26;100661.78;5058423;28;20106;-75
2023/12/29 08:22:12;;;;;;;8.07;1.73;;;;;;;15.55;64.15;100661.06;5054001;28;20384;-75
2023/12/29 08:24:42;;;;;;;3.60;1.73;;;;;;;16.37;61.45;100658.25;5038584;28;20772;-77
2023/12/29 08:27:07;;;;;;;7.93;1.57;;;;;;;16.66;61.65;100670.34;5053333;28;20064;-77
2023/12/29 08:29:33;;;;;;;5.53;1.50;;;;;;;16.30;61.35;100660.25;5051873;28;20438;-77
2023/12/29 08:31:58;;;;;;;5.70;1.50;;;;;;;16.53;61.03;100653.28;5071854;28;20032;-76
2023/12/29 08:34:24;;;;;;;5.60;1.17;;;;;;;16.32;60.29;100655.81;5056207;28;20021;-77
2023/12/29 08:36:49;;;;;;;6.07;1.20;;;;;;;16.36;60.77;100657.41;5070268;28;20021;-77
2023/12/29 08:39:14;;;;;;;1.67;1.17;;;;;;;16.41;60.16;100665.16;5032741;28;20069;-78
2023/12/29 08:41:40;;;;;;;5.53;1.20;;;;;;;15.68;62.55;100659.75;5051111;28;20029;-77
2023/12/29 08:44:05;;;;;;;3.53;1.13;;;;;;;16.97;58.75;100658.66;5047106;28;20495;-77
2023/12/29 08:46:31;;;;;;;4.87;1.23;;;;;;;15.88;61.33;100676.69;5060621;28;20119;-75
2023/12/29 08:48:56;;;;;;;4.53;1.47;;;;;;;16.72;59.03;100654.31;5059472;28;20057;-77
2023/12/29 08:51:21;;;;;;;3.50;1.00;;;;;;;16.78;59.35;100669.88;5048384;28;20033;-77
2023/12/29 08:53:47;;;;;;;6.93;0.90;;;;;;;16.78;59.54;100669.88;5045827;28;20051;-78
2023/12/29 08:56:13;;;;;;;3.93;1.00;;;;;;;16.94;58.11;100674.63;5055730;28;20096;-77
2023/12/29 08:58:41;;;;;;;4.97;1.03;;;;;;;16.73;58.31;100666.59;5050318;28;20024;-76
2023/12/29 09:01:07;;;;;;;3.83;0.90;;;;;;;16.56;59.94;100671.63;5053516;28;20396;-76
2023/12/29 09:03:32;;;;;;;2.03;0.93;;;;;;;17.57;56.62;100679.13;5050160;28;20017;-77
2023/12/29 09:05:58;;;;;;;4.10;0.73;;;;;;;16.91;58.06;100670.31;5055306;28;20170;-76
2023/12/29 09:08:24;;;;;;;3.77;1.20;;;;;;;17.58;56.05;100686.16;5059017;28;20021;-76
2023/12/29 09:10:49;;;;;;;2.33;1.03;;;;;;;17.00;57.52;100678.81;5050697;28;20031;-76
2023/12/29 09:13:15;;;;;;;1.80;1.00;;;;;;;16.31;60.14;100691.00;5068664;28;20028;-75
2023/12/29 09:15:40;;;;;;;6.63;2.30;;;;;;;16.87;57.01;100695.09;5050586;28;20037;-76
2023/12/29 09:18:06;;;;;;;3.17;1.10;;;;;;;17.19;56.53;100687.72;5067551;28;20044;-77
2023/12/29 09:20:31;;;;;;;11.50;1.30;;;;;;;16.80;57.45;100688.28;5068044;28;20032;-76
2023/12/29 09:22:57;;;;;;;0.80;0.70;;;;;;;17.18;57.92;100685.13;5044166;28;20033;-76
2023/12/29 09:25:23;;;;;;;2.20;0.90;;;;;;;17.14;56.75;100692.31;5030079;28;20022;-76
2023/12/29 09:27:49;;;;;;;0.87;0.73;;;;;;;16.83;58.06;100682.03;5047726;28;20039;-77
2023/12/29 09:30:14;;;;;;;1.27;0.67;;;;;;;17.16;56.51;100689.59;5050616;28;20027;-76
2023/12/29 09:32:40;;;;;;;3.63;1.03;;;;;;;17.28;56.04;100699.66;5052042;28;20387;-76
2023/12/29 09:35:05;;;;;;;3.93;0.73;;;;;;;17.50;54.81;100704.09;5049195;28;20016;-77
2023/12/29 09:37:31;;;;;;;0.77;0.70;;;;;;;16.55;58.62;100702.41;5025355;28;20097;-77
2023/12/29 09:39:56;;;;;;;6.70;0.70;;;;;;;16.74;57.26;100701.75;5058394;28;20025;-77
2023/12/29 09:42:25;;;;;;;4.77;1.07;;;;;;;17.24;56.25;100706.88;5049943;28;20427;-76
2023/12/29 09:44:51;;;;;;;4.37;0.80;;;;;;;16.88;58.09;100701.22;5050199;28;20047;-76
2023/12/29 09:47:23;;;;;;;5.07;0.97;;;;;;;17.13;56.74;100707.31;5048210;28;20136;-77
2023/12/29 09:49:48;;;;;;;3.40;0.93;;;;;;;16.94;56.48;100719.50;5053383;28;20439;-77
2023/12/29 09:52:16;;;;;;;4.50;1.10;;;;;;;17.51;56.05;100719.88;5048574;28;20025;-76
2023/12/29 09:54:42;;;;;;;5.43;1.13;;;;;;;17.16;56.68;100722.16;5046870;28;20057;-76
2023/12/29 09:57:09;;;;;;;6.17;0.80;;;;;;;16.99;57.32;100730.72;5046092;28;20535;-76
2023/12/29 09:59:40;;;;;;;0.97;0.50;;;;;;;17.43;55.43;100724.63;5046794;28;20032;-76
2023/12/29 10:02:20;;;;;;;3.43;0.80;;;;;;;17.07;55.87;100718.09;5048941;28;20040;-76
2023/12/29 10:04:45;;;;;;;7.37;1.47;;;;;;;17.34;56.06;100733.78;5066383;28;20029;-76
2023/12/29 10:07:18;;;;;;;4.17;1.30;;;;;;;17.58;54.99;100729.28;5048772;28;20064;-76
2023/12/29 10:09:45;;;;;;;9.57;1.03;;;;;;;17.42;55.37;100734.34;5053564;28;20036;-76
2023/12/29 10:12:12;;;;;;;5.13;1.00;;;;;;;18.17;52.83;100741.88;5049978;28;20111;-76
2023/12/29 10:14:46;;;;;;;5.83;1.50;;;;;;;18.09;53.50;100729.84;5061239;28;20459;-76
2023/12/29 10:17:24;;;;;;;5.17;1.20;;;;;;;17.30;55.31;100740.09;5038398;28;20033;-76
2023/12/29 10:20:10;;;;;;;5.37;2.10;;;;;;;17.97;54.00;100752.38;5041040;28;20076;-76
2023/12/29 10:23:08;;;;;;;8.73;1.00;;;;;;;17.72;54.53;100747.22;5049630;28;20518;-76
2023/12/29 10:25:34;;;;;;;7.03;2.03;;;;;;;16.69;56.05;100749.44;5027772;28;20080;-75
2023/12/29 10:27:59;;;;;;;9.07;1.87;;;;;;;16.56;56.73;100742.88;5030590;28;20022;-75
2023/12/29 10:30:33;;;;;;;12.47;1.00;;;;;;;18.22;53.84;100739.91;5068117;28;20514;-76
2023/12/29 10:33:02;;;;;;;9.53;1.07;;;;;;;17.64;54.06;100752.81;5051585;28;20121;-76
2023/12/29 10:35:31;;;;;;;8.37;1.53;;;;;;;16.97;56.82;100751.06;5072357;28;20035;-76
2023/12/29 10:38:13;;;;;;;7.97;1.23;;;;;;;17.28;55.24;100736.66;5030674;28;20045;-76
2023/12/29 10:40:42;;;;;;;9.03;1.83;;;;;;;16.95;56.07;100758.16;5047522;28;20094;-76
2023/12/29 10:43:09;;;;;;;10.33;1.50;;;;;;;17.02;56.34;100746.47;5054232;28;20025;-75
2023/12/29 10:45:36;;;;;;;9.07;1.23;;;;;;;17.80;53.31;100752.19;5071306;28;20033;-75
2023/12/29 10:48:02;;;;;;;11.37;2.60;;;;;;;17.43;53.80;100757.19;5058086;28;20523;-76
2023/12/29 10:50:27;;;;;;;9.60;1.07;;;;;;;17.28;54.33;100747.22;5052784;28;20025;-76
2023/12/29 10:53:18;;;;;;;11.77;1.47;;;;;;;17.44;53.81;100765.97;5050997;28;20027;-75
2023/12/29 10:55:43;;;;;;;10.63;1.43;;;;;;;17.65;53.17;100758.97;5038985;28;20029;-77
2023/12/29 10:58:08;;;;;;;8.67;1.27;;;;;;;17.35;53.21;100748.72;5051886;28;20029;-78
2023/12/29 11:00:34;;;;;;;12.70;1.37;;;;;;;17.80;53.13;100754.81;5051577;28;20028;-77
2023/12/29 11:03:00;;;;;;;7.53;1.37;;;;;;;17.06;55.11;100753.34;5052526;28;20121;-76
2023/12/29 11:05:26;;;;;;;9.60;2.00;;;;;;;17.55;54.85;100758.47;5050931;28;20104;-77
2023/12/29 11:07:54;;;;;;;16.07;1.17;;;;;;;17.08;55.05;100755.94;5050173;28;20033;-76
2023/12/29 11:10:21;;;;;;;15.80;1.73;;;;;;;18.13;52.44;100757.88;5064617;28;20047;-76
2023/12/29 11:12:48;;;;;;;7.10;1.73;;;;;;;17.71;53.90;100741.97;5049714;28;20035;-77
2023/12/29 11:15:15;;;;;;;9.40;1.70;;;;;;;17.69;53.76;100751.78;5048286;28;20124;-77
2023/12/29 11:17:49;;;;;;;13.00;2.67;;;;;;;17.75;53.21;100743.56;5049541;28;20037;-76